sensor_id;sensor_type;location;lat;lon;timestamp;temperature;humidity
15355;DHT22;7777;52.254;9.618;2022-11-11T00:01:04;11.30;99.90
15355;DHT22;7777;52.254;9.618;2022-11-11T00:03:32;11.30;99.90
15355;DHT22;7777;52.254;9.618;2022-11-11T00:06:06;11.30;99.90
15355;DHT22;7777;52.254;9.618;2022-11-11T00:08:34;11.30;99.90
15355;DHT22;7777;52.254;9.618;2022-11-11T00:11:04;11.30;99.90
15355;DHT22;7777;52.254;9.618;2022-11-11T00:13:32;11.30;99.90
15355;DHT22;7777;52.254;9.618;2022-11-11T00:16:10;11.20;99.90
15355;DHT22;7777;52.254;9.618;2022-11-11T00:18:40;11.30;99.90
15355;DHT22;7777;52.254;9.618;2022-11-11T00:21:25;11.20;99.90
15355;DHT22;7777;52.254;9.618;2022-11-11T00:24:28;11.20;99.90
15355;DHT22;7777;52.254;9.618;2022-11-11T00:27:13;11.20;99.90
15355;DHT22;7777;52.254;9.618;2022-11-11T00:29:40;11.20;99.90
15355;DHT22;7777;52.254;9.618;2022-11-11T00:32:10;11.20;99.90
15355;DHT22;7777;52.254;9.618;2022-11-11T00:34:52;11.10;99.90
15355;DHT22;7777;52.254;9.618;2022-11-11T00:37:39;11.10;99.90
15355;DHT22;7777;52.254;9.618;2022-11-11T00:40:05;11.10;99.90
15355;DHT22;7777;52.254;9.618;2022-11-11T00:42:32;11.10;99.90
15355;DHT22;7777;52.254;9.618;2022-11-11T00:44:58;11.10;99.90
15355;DHT22;7777;52.254;9.618;2022-11-11T00:47:23;11.10;99.90
15355;DHT22;7777;52.254;9.618;2022-11-11T00:50:14;11.00;99.90
15355;DHT22;7777;52.254;9.618;2022-11-11T00:53:23;11.00;99.90
15355;DHT22;7777;52.254;9.618;2022-11-11T00:55:54;11.10;99.90
15355;DHT22;7777;52.254;9.618;2022-11-11T00:58:22;11.00;99.90
15355;DHT22;7777;52.254;9.618;2022-11-11T01:00:48;11.00;99.90
15355;DHT22;7777;52.254;9.618;2022-11-11T01:03:18;11.00;99.90
15355;DHT22;7777;52.254;9.618;2022-11-11T01:05:44;11.00;99.90
15355;DHT22;7777;52.254;9.618;2022-11-11T01:08:10;11.00;99.90
15355;DHT22;7777;52.254;9.618;2022-11-11T01:10:36;11.00;99.90
15355;DHT22;7777;52.254;9.618;2022-11-11T01:13:04;10.90;99.90
15355;DHT22;7777;52.254;9.618;2022-11-11T01:15:38;10.90;99.90
15355;DHT22;7777;52.254;9.618;2022-11-11T01:18:09;10.90;99.90
15355;DHT22;7777;52.254;9.618;2022-11-11T01:20:36;10.90;99.90
15355;DHT22;7777;52.254;9.618;2022-11-11T01:23:09;10.90;99.90
15355;DHT22;7777;52.254;9.618;2022-11-11T01:25:38;10.80;99.90
15355;DHT22;7777;52.254;9.618;2022-11-11T01:28:05;10.80;99.90
15355;DHT22;7777;52.254;9.618;2022-11-11T01:30:33;10.80;99.90
15355;DHT22;7777;52.254;9.618;2022-11-11T01:32:59;10.70;99.90
15355;DHT22;7777;52.254;9.618;2022-11-11T01:35:27;10.70;99.90
15355;DHT22;7777;52.254;9.618;2022-11-11T01:37:53;10.60;99.90
15355;DHT22;7777;52.254;9.618;2022-11-11T01:40:19;10.60;99.90
15355;DHT22;7777;52.254;9.618;2022-11-11T01:48:28;10.50;99.90
15355;DHT22;7777;52.254;9.618;2022-11-11T01:51:18;10.60;99.90
15355;DHT22;7777;52.254;9.618;2022-11-11T01:54:09;10.50;99.90
15355;DHT22;7777;52.254;9.618;2022-11-11T01:56:39;10.50;99.90
15355;DHT22;7777;52.254;9.618;2022-11-11T01:59:10;10.50;99.90
15355;DHT22;7777;52.254;9.618;2022-11-11T02:01:37;10.50;99.90
15355;DHT22;7777;52.254;9.618;2022-11-11T02:04:05;10.50;99.90
15355;DHT22;7777;52.254;9.618;2022-11-11T02:06:52;10.50;99.90
15355;DHT22;7777;52.254;9.618;2022-11-11T02:09:21;10.40;99.90
15355;DHT22;7777;52.254;9.618;2022-11-11T02:11:47;10.40;99.90
15355;DHT22;7777;52.254;9.618;2022-11-11T02:14:36;10.40;99.90
15355;DHT22;7777;52.254;9.618;2022-11-11T02:17:09;10.40;99.90
15355;DHT22;7777;52.254;9.618;2022-11-11T02:22:26;10.40;99.90
15355;DHT22;7777;52.254;9.618;2022-11-11T02:24:56;10.40;99.90
15355;DHT22;7777;52.254;9.618;2022-11-11T02:27:25;10.40;99.90
15355;DHT22;7777;52.254;9.618;2022-11-11T02:29:53;10.30;99.90
15355;DHT22;7777;52.254;9.618;2022-11-11T02:32:20;10.40;99.90
15355;DHT22;7777;52.254;9.618;2022-11-11T02:34:46;10.30;99.90
15355;DHT22;7777;52.254;9.618;2022-11-11T02:37:13;10.30;99.90
15355;DHT22;7777;52.254;9.618;2022-11-11T02:39:45;10.30;99.90
15355;DHT22;7777;52.254;9.618;2022-11-11T02:42:13;10.30;99.90
15355;DHT22;7777;52.254;9.618;2022-11-11T02:44:40;10.40;99.90
15355;DHT22;7777;52.254;9.618;2022-11-11T02:47:07;10.30;99.90
15355;DHT22;7777;52.254;9.618;2022-11-11T02:49:33;10.30;99.90
15355;DHT22;7777;52.254;9.618;2022-11-11T02:51:58;10.40;99.90
15355;DHT22;7777;52.254;9.618;2022-11-11T02:54:24;10.40;99.90
15355;DHT22;7777;52.254;9.618;2022-11-11T02:56:50;10.40;99.90
15355;DHT22;7777;52.254;9.618;2022-11-11T02:59:31;10.40;99.90
15355;DHT22;7777;52.254;9.618;2022-11-11T03:01:57;10.30;99.90
15355;DHT22;7777;52.254;9.618;2022-11-11T03:04:23;10.30;99.90
15355;DHT22;7777;52.254;9.618;2022-11-11T03:06:50;10.30;99.90
15355;DHT22;7777;52.254;9.618;2022-11-11T03:09:16;10.30;99.90
15355;DHT22;7777;52.254;9.618;2022-11-11T03:11:41;10.30;99.90
15355;DHT22;7777;52.254;9.618;2022-11-11T03:14:07;10.30;99.90
15355;DHT22;7777;52.254;9.618;2022-11-11T03:16:33;10.30;99.90
15355;DHT22;7777;52.254;9.618;2022-11-11T03:19:18;10.20;99.90
15355;DHT22;7777;52.254;9.618;2022-11-11T03:21:44;10.30;99.90
15355;DHT22;7777;52.254;9.618;2022-11-11T03:24:10;10.30;99.90
15355;DHT22;7777;52.254;9.618;2022-11-11T03:26:38;10.30;99.90
15355;DHT22;7777;52.254;9.618;2022-11-11T03:29:04;10.30;99.90
15355;DHT22;7777;52.254;9.618;2022-11-11T03:31:30;10.20;99.90
15355;DHT22;7777;52.254;9.618;2022-11-11T03:33:56;10.20;99.90
15355;DHT22;7777;52.254;9.618;2022-11-11T03:36:45;10.30;99.90
15355;DHT22;7777;52.254;9.618;2022-11-11T03:39:30;10.20;99.90
15355;DHT22;7777;52.254;9.618;2022-11-11T03:41:56;10.30;99.90
15355;DHT22;7777;52.254;9.618;2022-11-11T03:44:22;10.30;99.90
15355;DHT22;7777;52.254;9.618;2022-11-11T03:46:48;10.30;99.90
15355;DHT22;7777;52.254;9.618;2022-11-11T03:49:14;10.30;99.90
15355;DHT22;7777;52.254;9.618;2022-11-11T03:51:40;10.30;99.90
15355;DHT22;7777;52.254;9.618;2022-11-11T03:54:06;10.30;99.90
15355;DHT22;7777;52.254;9.618;2022-11-11T03:56:32;10.30;99.90
15355;DHT22;7777;52.254;9.618;2022-11-11T03:58:58;10.30;99.90
15355;DHT22;7777;52.254;9.618;2022-11-11T04:01:23;10.30;99.90
15355;DHT22;7777;52.254;9.618;2022-11-11T04:04:07;10.30;99.90
15355;DHT22;7777;52.254;9.618;2022-11-11T04:06:56;10.30;99.90
15355;DHT22;7777;52.254;9.618;2022-11-11T04:09:40;10.40;99.90
15355;DHT22;7777;52.254;9.618;2022-11-11T04:12:25;10.40;99.90
15355;DHT22;7777;52.254;9.618;2022-11-11T04:14:52;10.40;99.90
15355;DHT22;7777;52.254;9.618;2022-11-11T04:17:36;10.30;99.90
15355;DHT22;7777;52.254;9.618;2022-11-11T04:20:02;10.40;99.90
15355;DHT22;7777;52.254;9.618;2022-11-11T04:22:47;10.40;99.90
15355;DHT22;7777;52.254;9.618;2022-11-11T04:25:13;10.40;99.90
15355;DHT22;7777;52.254;9.618;2022-11-11T04:28:17;10.40;99.90
15355;DHT22;7777;52.254;9.618;2022-11-11T04:31:02;10.40;99.90
15355;DHT22;7777;52.254;9.618;2022-11-11T04:33:28;10.40;99.90
15355;DHT22;7777;52.254;9.618;2022-11-11T04:35:53;10.40;99.90
15355;DHT22;7777;52.254;9.618;2022-11-11T04:38:19;10.40;99.90
15355;DHT22;7777;52.254;9.618;2022-11-11T04:41:04;10.40;99.90
15355;DHT22;7777;52.254;9.618;2022-11-11T04:43:30;10.40;99.90
15355;DHT22;7777;52.254;9.618;2022-11-11T04:46:00;10.40;99.90
15355;DHT22;7777;52.254;9.618;2022-11-11T04:48:26;10.40;99.90
15355;DHT22;7777;52.254;9.618;2022-11-11T04:50:53;10.40;99.90
15355;DHT22;7777;52.254;9.618;2022-11-11T04:53:18;10.40;99.90
15355;DHT22;7777;52.254;9.618;2022-11-11T04:55:45;10.40;99.90
15355;DHT22;7777;52.254;9.618;2022-11-11T04:58:32;10.40;99.90
15355;DHT22;7777;52.254;9.618;2022-11-11T05:00:59;10.40;99.90
15355;DHT22;7777;52.254;9.618;2022-11-11T05:03:25;10.40;99.90
15355;DHT22;7777;52.254;9.618;2022-11-11T05:05:53;10.40;99.90
15355;DHT22;7777;52.254;9.618;2022-11-11T05:08:41;10.40;99.90
15355;DHT22;7777;52.254;9.618;2022-11-11T05:11:30;10.40;99.90
15355;DHT22;7777;52.254;9.618;2022-11-11T05:14:02;10.30;99.90
15355;DHT22;7777;52.254;9.618;2022-11-11T05:16:52;10.30;99.90
15355;DHT22;7777;52.254;9.618;2022-11-11T05:19:38;10.30;99.90
15355;DHT22;7777;52.254;9.618;2022-11-11T05:22:31;10.30;99.90
15355;DHT22;7777;52.254;9.618;2022-11-11T05:24:59;10.30;99.90
15355;DHT22;7777;52.254;9.618;2022-11-11T05:27:44;10.30;99.90
15355;DHT22;7777;52.254;9.618;2022-11-11T05:30:11;10.30;99.90
15355;DHT22;7777;52.254;9.618;2022-11-11T05:32:38;10.30;99.90
15355;DHT22;7777;52.254;9.618;2022-11-11T05:35:05;10.30;99.90
15355;DHT22;7777;52.254;9.618;2022-11-11T05:37:31;10.30;99.90
15355;DHT22;7777;52.254;9.618;2022-11-11T05:39:57;10.30;99.90
15355;DHT22;7777;52.254;9.618;2022-11-11T05:42:22;10.30;99.90
15355;DHT22;7777;52.254;9.618;2022-11-11T05:44:48;10.30;99.90
15355;DHT22;7777;52.254;9.618;2022-11-11T05:47:14;10.30;99.90
15355;DHT22;7777;52.254;9.618;2022-11-11T05:49:40;10.20;99.90
15355;DHT22;7777;52.254;9.618;2022-11-11T05:52:07;10.20;99.90
15355;DHT22;7777;52.254;9.618;2022-11-11T05:54:34;10.20;99.90
15355;DHT22;7777;52.254;9.618;2022-11-11T05:57:00;10.20;99.90
15355;DHT22;7777;52.254;9.618;2022-11-11T05:59:26;10.20;99.90
15355;DHT22;7777;52.254;9.618;2022-11-11T06:01:51;10.20;99.90
15355;DHT22;7777;52.254;9.618;2022-11-11T06:04:17;10.20;99.90
15355;DHT22;7777;52.254;9.618;2022-11-11T06:06:43;10.10;99.90
15355;DHT22;7777;52.254;9.618;2022-11-11T06:09:09;10.10;99.90
15355;DHT22;7777;52.254;9.618;2022-11-11T06:11:35;10.10;99.90
15355;DHT22;7777;52.254;9.618;2022-11-11T06:14:00;10.10;99.90
15355;DHT22;7777;52.254;9.618;2022-11-11T06:16:27;10.00;99.90
15355;DHT22;7777;52.254;9.618;2022-11-11T06:18:52;10.10;99.90
15355;DHT22;7777;52.254;9.618;2022-11-11T06:21:18;10.00;99.90
15355;DHT22;7777;52.254;9.618;2022-11-11T06:23:44;10.00;99.90
15355;DHT22;7777;52.254;9.618;2022-11-11T06:26:11;10.00;99.90
15355;DHT22;7777;52.254;9.618;2022-11-11T06:28:57;10.10;99.90
15355;DHT22;7777;52.254;9.618;2022-11-11T06:31:25;10.00;99.90
15355;DHT22;7777;52.254;9.618;2022-11-11T06:33:52;10.10;99.90
15355;DHT22;7777;52.254;9.618;2022-11-11T06:36:20;10.00;99.90
15355;DHT22;7777;52.254;9.618;2022-11-11T06:38:46;10.00;99.90
15355;DHT22;7777;52.254;9.618;2022-11-11T06:41:13;10.00;99.90
15355;DHT22;7777;52.254;9.618;2022-11-11T06:43:41;10.00;99.90
15355;DHT22;7777;52.254;9.618;2022-11-11T06:46:15;10.00;99.90
15355;DHT22;7777;52.254;9.618;2022-11-11T06:48:44;10.00;99.90
15355;DHT22;7777;52.254;9.618;2022-11-11T06:51:10;10.00;99.90
15355;DHT22;7777;52.254;9.618;2022-11-11T06:53:37;10.00;99.90
15355;DHT22;7777;52.254;9.618;2022-11-11T06:56:02;10.00;99.90
15355;DHT22;7777;52.254;9.618;2022-11-11T06:58:28;10.00;99.90
15355;DHT22;7777;52.254;9.618;2022-11-11T07:00:54;10.00;99.90
15355;DHT22;7777;52.254;9.618;2022-11-11T07:03:21;10.10;99.90
15355;DHT22;7777;52.254;9.618;2022-11-11T07:05:47;10.10;99.90
15355;DHT22;7777;52.254;9.618;2022-11-11T07:08:15;10.00;99.90
15355;DHT22;7777;52.254;9.618;2022-11-11T07:10:44;10.10;99.90
15355;DHT22;7777;52.254;9.618;2022-11-11T07:13:12;10.10;99.90
15355;DHT22;7777;52.254;9.618;2022-11-11T07:15:40;10.10;99.90
15355;DHT22;7777;52.254;9.618;2022-11-11T07:18:07;10.10;99.90
15355;DHT22;7777;52.254;9.618;2022-11-11T07:20:33;10.10;99.90
15355;DHT22;7777;52.254;9.618;2022-11-11T07:22:58;10.10;99.90
15355;DHT22;7777;52.254;9.618;2022-11-11T07:25:24;10.10;99.90
15355;DHT22;7777;52.254;9.618;2022-11-11T07:27:50;10.10;99.90
15355;DHT22;7777;52.254;9.618;2022-11-11T07:30:16;10.10;99.90
15355;DHT22;7777;52.254;9.618;2022-11-11T07:32:50;10.10;99.90
15355;DHT22;7777;52.254;9.618;2022-11-11T07:35:17;10.10;99.90
15355;DHT22;7777;52.254;9.618;2022-11-11T07:37:44;10.10;99.90
15355;DHT22;7777;52.254;9.618;2022-11-11T07:40:12;10.10;99.90
15355;DHT22;7777;52.254;9.618;2022-11-11T07:42:40;10.10;99.90
15355;DHT22;7777;52.254;9.618;2022-11-11T07:45:07;10.10;99.90
15355;DHT22;7777;52.254;9.618;2022-11-11T07:47:34;10.20;99.90
15355;DHT22;7777;52.254;9.618;2022-11-11T07:50:00;10.10;99.90
15355;DHT22;7777;52.254;9.618;2022-11-11T07:52:27;10.20;99.90
15355;DHT22;7777;52.254;9.618;2022-11-11T07:54:52;10.20;99.90
15355;DHT22;7777;52.254;9.618;2022-11-11T07:57:18;10.20;99.90
15355;DHT22;7777;52.254;9.618;2022-11-11T07:59:44;10.20;99.90
15355;DHT22;7777;52.254;9.618;2022-11-11T08:02:10;10.20;99.90
15355;DHT22;7777;52.254;9.618;2022-11-11T08:04:36;10.20;99.90
15355;DHT22;7777;52.254;9.618;2022-11-11T08:07:02;10.20;99.90
15355;DHT22;7777;52.254;9.618;2022-11-11T08:09:29;10.20;99.90
15355;DHT22;7777;52.254;9.618;2022-11-11T08:11:55;10.20;99.90
15355;DHT22;7777;52.254;9.618;2022-11-11T08:14:39;10.20;99.90
15355;DHT22;7777;52.254;9.618;2022-11-11T08:17:05;10.30;99.90
15355;DHT22;7777;52.254;9.618;2022-11-11T08:19:31;10.30;99.90
15355;DHT22;7777;52.254;9.618;2022-11-11T08:21:57;10.30;99.90
15355;DHT22;7777;52.254;9.618;2022-11-11T08:24:22;10.30;99.90
15355;DHT22;7777;52.254;9.618;2022-11-11T08:26:48;10.30;99.90
15355;DHT22;7777;52.254;9.618;2022-11-11T08:29:14;10.30;99.90
15355;DHT22;7777;52.254;9.618;2022-11-11T08:31:40;10.30;99.90
15355;DHT22;7777;52.254;9.618;2022-11-11T08:34:06;10.40;99.90
15355;DHT22;7777;52.254;9.618;2022-11-11T08:36:32;10.40;99.90
15355;DHT22;7777;52.254;9.618;2022-11-11T08:38:58;10.40;99.90
15355;DHT22;7777;52.254;9.618;2022-11-11T08:41:24;10.40;99.90
15355;DHT22;7777;52.254;9.618;2022-11-11T08:43:51;10.50;99.90
15355;DHT22;7777;52.254;9.618;2022-11-11T08:46:18;10.50;99.90
15355;DHT22;7777;52.254;9.618;2022-11-11T08:48:44;10.50;99.90
15355;DHT22;7777;52.254;9.618;2022-11-11T08:51:10;10.50;99.90
15355;DHT22;7777;52.254;9.618;2022-11-11T08:53:36;10.50;99.90
15355;DHT22;7777;52.254;9.618;2022-11-11T08:56:02;10.60;99.90
15355;DHT22;7777;52.254;9.618;2022-11-11T08:58:28;10.60;99.90
15355;DHT22;7777;52.254;9.618;2022-11-11T09:00:55;10.70;99.90
15355;DHT22;7777;52.254;9.618;2022-11-11T09:03:21;10.70;99.90
15355;DHT22;7777;52.254;9.618;2022-11-11T09:05:46;10.70;99.90
15355;DHT22;7777;52.254;9.618;2022-11-11T09:08:13;10.70;99.90
15355;DHT22;7777;52.254;9.618;2022-11-11T09:10:38;10.80;99.90
15355;DHT22;7777;52.254;9.618;2022-11-11T09:13:05;10.80;99.90
15355;DHT22;7777;52.254;9.618;2022-11-11T09:15:31;10.90;99.90
15355;DHT22;7777;52.254;9.618;2022-11-11T09:17:57;10.90;99.90
15355;DHT22;7777;52.254;9.618;2022-11-11T09:20:30;10.90;99.90
15355;DHT22;7777;52.254;9.618;2022-11-11T09:22:55;11.00;99.90
15355;DHT22;7777;52.254;9.618;2022-11-11T09:25:21;11.00;99.90
15355;DHT22;7777;52.254;9.618;2022-11-11T09:27:59;11.00;99.90
15355;DHT22;7777;52.254;9.618;2022-11-11T09:30:26;11.10;99.90
15355;DHT22;7777;52.254;9.618;2022-11-11T09:32:53;11.10;99.90
15355;DHT22;7777;52.254;9.618;2022-11-11T09:35:19;11.20;99.90
15355;DHT22;7777;52.254;9.618;2022-11-11T09:37:53;11.20;99.90
15355;DHT22;7777;52.254;9.618;2022-11-11T09:40:21;11.30;99.90
15355;DHT22;7777;52.254;9.618;2022-11-11T09:43:02;11.30;99.90
15355;DHT22;7777;52.254;9.618;2022-11-11T09:48:53;11.40;99.90
15355;DHT22;7777;52.254;9.618;2022-11-11T09:51:31;11.50;99.90
15355;DHT22;7777;52.254;9.618;2022-11-11T09:57:18;11.70;99.90
15355;DHT22;7777;52.254;9.618;2022-11-11T09:59:49;11.70;99.90
15355;DHT22;7777;52.254;9.618;2022-11-11T10:02:31;11.70;99.90
15355;DHT22;7777;52.254;9.618;2022-11-11T10:07:45;11.90;99.90
15355;DHT22;7777;52.254;9.618;2022-11-11T10:13:14;12.00;99.90
15355;DHT22;7777;52.254;9.618;2022-11-11T10:21:53;12.20;99.90
15355;DHT22;7777;52.254;9.618;2022-11-11T10:24:31;12.30;99.90
15355;DHT22;7777;52.254;9.618;2022-11-11T10:27:17;12.40;99.90
15355;DHT22;7777;52.254;9.618;2022-11-11T10:29:44;12.40;99.90
15355;DHT22;7777;52.254;9.618;2022-11-11T10:32:32;12.50;99.90
15355;DHT22;7777;52.254;9.618;2022-11-11T10:35:21;12.60;99.90
15355;DHT22;7777;52.254;9.618;2022-11-11T10:40:52;12.70;99.90
15355;DHT22;7777;52.254;9.618;2022-11-11T10:43:23;12.80;99.90
15355;DHT22;7777;52.254;9.618;2022-11-11T10:46:08;12.90;99.90
15355;DHT22;7777;52.254;9.618;2022-11-11T10:48:59;12.90;99.90
15355;DHT22;7777;52.254;9.618;2022-11-11T10:51:34;13.00;99.90
15355;DHT22;7777;52.254;9.618;2022-11-11T10:57:19;13.10;99.90
15355;DHT22;7777;52.254;9.618;2022-11-11T11:02:44;13.20;99.90
15355;DHT22;7777;52.254;9.618;2022-11-11T11:08:24;13.30;99.90
15355;DHT22;7777;52.254;9.618;2022-11-11T11:11:01;13.40;99.90
15355;DHT22;7777;52.254;9.618;2022-11-11T11:13:52;13.40;99.90
15355;DHT22;7777;52.254;9.618;2022-11-11T11:16:27;13.40;99.90
15355;DHT22;7777;52.254;9.618;2022-11-11T11:19:22;13.50;99.90
15355;DHT22;7777;52.254;9.618;2022-11-11T11:21:53;13.50;99.90
15355;DHT22;7777;52.254;9.618;2022-11-11T11:24:31;13.60;99.90
15355;DHT22;7777;52.254;9.618;2022-11-11T11:27:00;13.60;99.90
15355;DHT22;7777;52.254;9.618;2022-11-11T11:29:59;13.60;99.90
15355;DHT22;7777;52.254;9.618;2022-11-11T11:32:34;13.70;99.90
15355;DHT22;7777;52.254;9.618;2022-11-11T11:35:00;13.70;99.90
15355;DHT22;7777;52.254;9.618;2022-11-11T11:37:26;13.70;99.90
15355;DHT22;7777;52.254;9.618;2022-11-11T11:40:03;13.70;99.90
15355;DHT22;7777;52.254;9.618;2022-11-11T11:42:35;13.80;99.90
15355;DHT22;7777;52.254;9.618;2022-11-11T11:45:28;13.80;99.90
15355;DHT22;7777;52.254;9.618;2022-11-11T11:56:59;14.00;99.90
15355;DHT22;7777;52.254;9.618;2022-11-11T12:05:42;14.10;99.90
15355;DHT22;7777;52.254;9.618;2022-11-11T12:08:30;14.20;99.90
15355;DHT22;7777;52.254;9.618;2022-11-11T12:28:28;14.50;99.90
15355;DHT22;7777;52.254;9.618;2022-11-11T12:31:48;14.60;99.90
15355;DHT22;7777;52.254;9.618;2022-11-11T12:49:02;14.90;99.30
15355;DHT22;7777;52.254;9.618;2022-11-11T12:55:18;15.00;99.90
15355;DHT22;7777;52.254;9.618;2022-11-11T13:01:17;15.10;99.90
15355;DHT22;7777;52.254;9.618;2022-11-11T13:12:11;15.10;99.80
15355;DHT22;7777;52.254;9.618;2022-11-11T13:17:30;15.20;99.70
15355;DHT22;7777;52.254;9.618;2022-11-11T13:20:02;15.10;99.40
15355;DHT22;7777;52.254;9.618;2022-11-11T13:22:31;15.20;99.80
15355;DHT22;7777;52.254;9.618;2022-11-11T13:25:02;15.20;99.90
15355;DHT22;7777;52.254;9.618;2022-11-11T13:27:57;15.20;99.90
15355;DHT22;7777;52.254;9.618;2022-11-11T13:30:47;15.20;99.20
15355;DHT22;7777;52.254;9.618;2022-11-11T13:33:21;15.20;99.60
15355;DHT22;7777;52.254;9.618;2022-11-11T13:36:00;15.20;99.70
15355;DHT22;7777;52.254;9.618;2022-11-11T13:38:42;15.10;99.60
15355;DHT22;7777;52.254;9.618;2022-11-11T13:41:10;15.10;99.30
15355;DHT22;7777;52.254;9.618;2022-11-11T13:43:45;15.10;99.20
15355;DHT22;7777;52.254;9.618;2022-11-11T13:46:28;15.10;99.40
15355;DHT22;7777;52.254;9.618;2022-11-11T13:48:57;15.10;98.90
15355;DHT22;7777;52.254;9.618;2022-11-11T13:51:24;15.10;99.60
15355;DHT22;7777;52.254;9.618;2022-11-11T13:54:05;15.10;99.10
15355;DHT22;7777;52.254;9.618;2022-11-11T13:56:55;15.10;99.60
15355;DHT22;7777;52.254;9.618;2022-11-11T13:59:31;15.10;99.80
15355;DHT22;7777;52.254;9.618;2022-11-11T14:10:09;15.00;99.10
15355;DHT22;7777;52.254;9.618;2022-11-11T14:15:47;15.00;99.70
15355;DHT22;7777;52.254;9.618;2022-11-11T14:20:48;14.90;99.90
15355;DHT22;7777;52.254;9.618;2022-11-11T14:23:40;14.90;99.90
15355;DHT22;7777;52.254;9.618;2022-11-11T14:35:00;14.90;99.90
15355;DHT22;7777;52.254;9.618;2022-11-11T14:40:27;14.70;99.60
15355;DHT22;7777;52.254;9.618;2022-11-11T14:42:54;14.70;99.60
15355;DHT22;7777;52.254;9.618;2022-11-11T14:47:50;14.60;99.90
15355;DHT22;7777;52.254;9.618;2022-11-11T14:53:23;14.50;99.20
15355;DHT22;7777;52.254;9.618;2022-11-11T14:55:55;14.50;99.70
15355;DHT22;7777;52.254;9.618;2022-11-11T14:58:24;14.40;99.80
15355;DHT22;7777;52.254;9.618;2022-11-11T15:01:16;14.40;99.40
15355;DHT22;7777;52.254;9.618;2022-11-11T15:03:46;14.30;99.80
15355;DHT22;7777;52.254;9.618;2022-11-11T15:06:19;14.20;99.70
15355;DHT22;7777;52.254;9.618;2022-11-11T15:09:42;14.20;99.20
15355;DHT22;7777;52.254;9.618;2022-11-11T15:12:28;14.10;99.50
15355;DHT22;7777;52.254;9.618;2022-11-11T15:15:20;14.10;99.70
15355;DHT22;7777;52.254;9.618;2022-11-11T15:18:11;14.00;99.50
15355;DHT22;7777;52.254;9.618;2022-11-11T15:21:13;14.00;99.60
15355;DHT22;7777;52.254;9.618;2022-11-11T15:24:01;13.90;99.40
15355;DHT22;7777;52.254;9.618;2022-11-11T15:26:55;13.80;99.50
15355;DHT22;7777;52.254;9.618;2022-11-11T15:37:37;13.60;99.30
15355;DHT22;7777;52.254;9.618;2022-11-11T15:40:05;13.50;99.50
15355;DHT22;7777;52.254;9.618;2022-11-11T15:42:34;13.50;99.30
15355;DHT22;7777;52.254;9.618;2022-11-11T15:47:42;13.40;99.40
15355;DHT22;7777;52.254;9.618;2022-11-11T15:50:29;13.30;99.50
15355;DHT22;7777;52.254;9.618;2022-11-11T15:53:01;13.30;99.40
15355;DHT22;7777;52.254;9.618;2022-11-11T15:55:32;13.20;99.50
15355;DHT22;7777;52.254;9.618;2022-11-11T15:58:27;13.20;99.20
15355;DHT22;7777;52.254;9.618;2022-11-11T16:00:55;13.10;99.30
15355;DHT22;7777;52.254;9.618;2022-11-11T16:03:42;13.00;99.20
15355;DHT22;7777;52.254;9.618;2022-11-11T16:06:11;13.00;99.40
15355;DHT22;7777;52.254;9.618;2022-11-11T16:08:49;12.90;99.30
15355;DHT22;7777;52.254;9.618;2022-11-11T16:11:18;12.80;99.30
15355;DHT22;7777;52.254;9.618;2022-11-11T16:13:46;12.80;99.40
15355;DHT22;7777;52.254;9.618;2022-11-11T16:16:21;12.80;99.40
15355;DHT22;7777;52.254;9.618;2022-11-11T16:18:58;12.70;99.40
15355;DHT22;7777;52.254;9.618;2022-11-11T16:21:41;12.70;99.40
15355;DHT22;7777;52.254;9.618;2022-11-11T16:24:27;12.60;99.40
15355;DHT22;7777;52.254;9.618;2022-11-11T16:26:56;12.60;99.50
15355;DHT22;7777;52.254;9.618;2022-11-11T16:29:28;12.50;99.40
15355;DHT22;7777;52.254;9.618;2022-11-11T16:31:59;12.50;99.50
15355;DHT22;7777;52.254;9.618;2022-11-11T16:37:03;12.40;99.50
15355;DHT22;7777;52.254;9.618;2022-11-11T16:39:30;12.40;99.50
15355;DHT22;7777;52.254;9.618;2022-11-11T16:41:59;12.30;99.50
15355;DHT22;7777;52.254;9.618;2022-11-11T16:45:00;12.30;99.50
15355;DHT22;7777;52.254;9.618;2022-11-11T16:50:05;12.20;99.50
15355;DHT22;7777;52.254;9.618;2022-11-11T16:52:54;12.20;99.50
15355;DHT22;7777;52.254;9.618;2022-11-11T16:58:02;12.10;99.50
15355;DHT22;7777;52.254;9.618;2022-11-11T17:00:36;12.10;99.50
15355;DHT22;7777;52.254;9.618;2022-11-11T17:05:55;12.00;99.50
15355;DHT22;7777;52.254;9.618;2022-11-11T17:08:41;12.10;99.50
15355;DHT22;7777;52.254;9.618;2022-11-11T17:14:04;11.90;99.50
15355;DHT22;7777;52.254;9.618;2022-11-11T17:16:31;11.90;99.50
15355;DHT22;7777;52.254;9.618;2022-11-11T17:19:01;11.90;99.50
15355;DHT22;7777;52.254;9.618;2022-11-11T17:21:27;12.00;99.50
15355;DHT22;7777;52.254;9.618;2022-11-11T17:23:53;11.90;99.50
15355;DHT22;7777;52.254;9.618;2022-11-11T17:26:19;12.00;99.50
15355;DHT22;7777;52.254;9.618;2022-11-11T17:28:45;12.00;99.60
15355;DHT22;7777;52.254;9.618;2022-11-11T17:31:11;11.90;99.60
15355;DHT22;7777;52.254;9.618;2022-11-11T17:33:38;12.00;99.60
15355;DHT22;7777;52.254;9.618;2022-11-11T17:36:04;12.00;99.60
15355;DHT22;7777;52.254;9.618;2022-11-11T17:38:34;12.00;99.60
15355;DHT22;7777;52.254;9.618;2022-11-11T17:41:02;12.00;99.60
15355;DHT22;7777;52.254;9.618;2022-11-11T17:43:28;12.00;99.60
15355;DHT22;7777;52.254;9.618;2022-11-11T17:45:54;12.10;99.60
15355;DHT22;7777;52.254;9.618;2022-11-11T17:48:21;12.10;99.60
15355;DHT22;7777;52.254;9.618;2022-11-11T17:50:46;12.10;99.60
15355;DHT22;7777;52.254;9.618;2022-11-11T17:53:12;12.10;99.60
15355;DHT22;7777;52.254;9.618;2022-11-11T17:55:38;12.10;99.60
15355;DHT22;7777;52.254;9.618;2022-11-11T17:58:04;12.10;99.60
15355;DHT22;7777;52.254;9.618;2022-11-11T18:00:29;12.10;99.60
15355;DHT22;7777;52.254;9.618;2022-11-11T18:02:55;12.10;99.60
15355;DHT22;7777;52.254;9.618;2022-11-11T18:05:21;12.10;99.60
15355;DHT22;7777;52.254;9.618;2022-11-11T18:07:47;12.10;99.50
15355;DHT22;7777;52.254;9.618;2022-11-11T18:10:13;12.10;99.60
15355;DHT22;7777;52.254;9.618;2022-11-11T18:12:51;12.10;99.50
15355;DHT22;7777;52.254;9.618;2022-11-11T18:15:20;12.10;99.60
15355;DHT22;7777;52.254;9.618;2022-11-11T18:17:46;12.20;99.40
15355;DHT22;7777;52.254;9.618;2022-11-11T18:20:12;12.10;99.40
15355;DHT22;7777;52.254;9.618;2022-11-11T18:22:41;12.10;99.50
15355;DHT22;7777;52.254;9.618;2022-11-11T18:25:07;12.10;99.60
15355;DHT22;7777;52.254;9.618;2022-11-11T18:27:33;12.10;99.50
15355;DHT22;7777;52.254;9.618;2022-11-11T18:29:59;12.20;99.50
15355;DHT22;7777;52.254;9.618;2022-11-11T18:32:24;12.20;99.40
15355;DHT22;7777;52.254;9.618;2022-11-11T18:34:53;12.20;99.50
15355;DHT22;7777;52.254;9.618;2022-11-11T18:37:19;12.20;99.50
15355;DHT22;7777;52.254;9.618;2022-11-11T18:39:45;12.20;99.40
15355;DHT22;7777;52.254;9.618;2022-11-11T18:42:10;12.30;99.40
15355;DHT22;7777;52.254;9.618;2022-11-11T18:44:36;12.30;99.40
15355;DHT22;7777;52.254;9.618;2022-11-11T18:47:02;12.30;99.50
15355;DHT22;7777;52.254;9.618;2022-11-11T18:49:28;12.20;99.40
15355;DHT22;7777;52.254;9.618;2022-11-11T18:51:54;12.30;99.50
15355;DHT22;7777;52.254;9.618;2022-11-11T18:54:20;12.30;99.50